createdAt,value
2023-01-07T00:04:04.377Z,1.45
2023-01-07T00:06:33.367Z,2.47
2023-01-07T00:09:01.129Z,1.48
2023-01-07T00:11:39.069Z,1.88
2023-01-07T00:16:36.170Z,1.33
2023-01-07T00:19:05.228Z,1.67
2023-01-07T00:21:32.728Z,1.52
2023-01-07T00:24:05.045Z,2.42
2023-01-07T00:26:35.179Z,2.35
2023-01-07T00:29:02.284Z,1.45
2023-01-07T00:31:35.157Z,2.53
2023-01-07T00:34:02.153Z,1.42
2023-01-07T00:36:31.431Z,1.20
2023-01-07T00:39:11.264Z,1.92
2023-01-07T00:41:38.614Z,2.55
2023-01-07T00:44:07.084Z,1.17
2023-01-07T00:46:34.290Z,1.85
2023-01-07T00:49:02.033Z,2.37
2023-01-07T00:51:28.964Z,1.40
2023-01-07T00:53:55.864Z,2.75
2023-01-07T00:56:22.680Z,2.05
2023-01-07T00:58:49.548Z,1.75
2023-01-07T01:01:16.407Z,1.10
2023-01-07T01:03:46.003Z,1.08
2023-01-07T01:06:15.373Z,1.60
2023-01-07T01:08:44.099Z,0.85
2023-01-07T01:11:12.460Z,1.77
2023-01-07T01:13:39.338Z,0.70
2023-01-07T01:16:11.825Z,1.67
2023-01-07T01:18:39.269Z,1.35
2023-01-07T01:21:08.420Z,0.80
2023-01-07T01:23:35.668Z,1.48
2023-01-07T01:26:07.256Z,1.63
2023-01-07T01:28:34.670Z,1.55
2023-01-07T01:31:01.836Z,0.63
2023-01-07T01:33:28.771Z,1.00
2023-01-07T01:35:55.534Z,0.88
2023-01-07T01:38:22.398Z,1.73
2023-01-07T01:40:49.195Z,1.23
2023-01-07T01:43:37.357Z,1.13
2023-01-07T01:46:26.830Z,1.02
2023-01-07T01:49:15.699Z,2.47
2023-01-07T01:51:46.528Z,1.15
2023-01-07T01:54:16.527Z,1.17
2023-01-07T01:56:47.218Z,0.73
2023-01-07T01:59:20.759Z,2.10
2023-01-07T02:01:48.202Z,1.48
2023-01-07T02:04:19.877Z,0.80
2023-01-07T02:07:15.523Z,1.17
2023-01-07T02:09:42.308Z,0.70
2023-01-07T02:12:27.691Z,0.93
2023-01-07T02:15:14.453Z,1.35
2023-01-07T02:18:23.756Z,0.98
2023-01-07T02:21:19.514Z,1.30
2023-01-07T02:23:58.095Z,1.27
2023-01-07T02:26:52.534Z,1.17
2023-01-07T02:29:28.148Z,0.90
2023-01-07T02:32:03.926Z,1.50
2023-01-07T02:34:40.237Z,0.60
2023-01-07T02:37:06.958Z,1.95
2023-01-07T02:40:00.835Z,1.60
2023-01-07T02:42:55.575Z,0.63
2023-01-07T02:45:32.311Z,0.77
2023-01-07T02:48:19.988Z,1.63
2023-01-07T02:50:46.745Z,0.65
2023-01-07T02:53:17.551Z,0.63
2023-01-07T02:56:05.043Z,1.35
2023-01-07T02:59:02.578Z,0.60
2023-01-07T03:01:49.250Z,0.57
2023-01-07T03:04:38.270Z,0.70
2023-01-07T03:07:24.909Z,0.55
2023-01-07T03:10:09.816Z,0.75
2023-01-07T03:12:45.555Z,0.63
2023-01-07T03:15:59.025Z,0.95
2023-01-07T03:18:30.145Z,0.90
2023-01-07T03:21:08.911Z,0.77
2023-01-07T03:23:41.357Z,0.70
2023-01-07T03:26:10.965Z,1.00
2023-01-07T03:28:41.507Z,0.98
2023-01-07T03:31:12.201Z,1.77
2023-01-07T03:33:52.807Z,1.08
2023-01-07T03:36:23.900Z,0.60
2023-01-07T03:38:52.496Z,1.15
2023-01-07T03:41:38.212Z,0.73
2023-01-07T03:44:05.101Z,1.25
2023-01-07T03:46:34.228Z,0.60
2023-01-07T03:49:01.048Z,0.75
2023-01-07T03:51:27.827Z,0.60
2023-01-07T03:53:55.053Z,0.60
2023-01-07T03:56:21.831Z,1.30
2023-01-07T03:58:48.600Z,0.98
2023-01-07T04:01:15.484Z,1.17
2023-01-07T04:03:42.292Z,1.33
2023-01-07T04:06:09.093Z,0.88
2023-01-07T04:08:37.242Z,0.60
2023-01-07T04:13:31.301Z,1.20
2023-01-07T04:15:58.070Z,1.65
2023-01-07T04:18:27.292Z,1.02
2023-01-07T04:20:56.559Z,0.77
2023-01-07T04:23:23.290Z,0.98
2023-01-07T04:25:50.524Z,0.73
2023-01-07T04:28:17.298Z,0.60
2023-01-07T04:30:44.146Z,0.60
2023-01-07T04:33:10.995Z,1.05
2023-01-07T04:35:39.697Z,0.73
2023-01-07T04:38:09.167Z,0.63
2023-01-07T04:40:35.949Z,0.80
2023-01-07T04:43:03.349Z,0.50
2023-01-07T04:45:30.216Z,0.68
2023-01-07T04:47:57.552Z,0.60
2023-01-07T04:50:25.235Z,0.50
2023-01-07T04:52:52.015Z,0.52
2023-01-07T04:55:18.841Z,0.60
2023-01-07T04:57:45.601Z,0.90
2023-01-07T05:00:12.904Z,0.70
2023-01-07T05:02:39.843Z,0.70
2023-01-07T05:05:06.937Z,0.70
2023-01-07T05:07:33.765Z,0.60
2023-01-07T05:10:00.609Z,0.65
2023-01-07T05:12:27.392Z,0.73
2023-01-07T05:14:54.167Z,1.00
2023-01-07T05:17:22.064Z,0.50
2023-01-07T05:19:49.328Z,1.02
2023-01-07T05:22:16.121Z,0.60
2023-01-07T05:24:42.886Z,1.05
2023-01-07T05:27:10.295Z,1.17
2023-01-07T05:29:37.864Z,1.20
2023-01-07T05:32:05.024Z,0.70
2023-01-07T05:34:31.818Z,0.77
2023-01-07T05:37:01.042Z,1.10
2023-01-07T05:39:27.823Z,0.70
2023-01-07T05:41:55.091Z,1.13
2023-01-07T05:44:21.831Z,0.80
2023-01-07T05:46:48.633Z,0.88
2023-01-07T05:49:15.398Z,0.88
2023-01-07T05:51:42.288Z,0.75
2023-01-07T05:54:09.237Z,1.10
2023-01-07T05:56:36.576Z,2.92
2023-01-07T05:59:03.857Z,1.73
2023-01-07T06:01:30.827Z,1.50
2023-01-07T06:03:58.155Z,1.60
2023-01-07T06:06:25.483Z,1.40
2023-01-07T06:08:52.329Z,2.97
2023-01-07T06:11:19.213Z,1.77
2023-01-07T06:13:45.975Z,1.75
2023-01-07T06:16:14.903Z,2.47
2023-01-07T06:18:42.254Z,1.70
2023-01-07T06:21:09.021Z,2.50
2023-01-07T06:23:37.147Z,2.03
2023-01-07T06:28:31.091Z,2.73
2023-01-07T06:31:00.352Z,1.90
2023-01-07T06:33:27.220Z,2.25
2023-01-07T06:35:54.465Z,1.55
2023-01-07T06:38:21.741Z,2.30
2023-01-07T06:40:49.000Z,2.07
2023-01-07T06:43:15.794Z,2.50
2023-01-07T06:45:42.756Z,2.67
2023-01-07T06:48:09.527Z,2.42
2023-01-07T06:50:36.773Z,1.60
2023-01-07T06:53:03.739Z,2.00
2023-01-07T06:55:30.966Z,1.50
2023-01-07T06:57:57.889Z,1.30
2023-01-07T07:00:24.676Z,3.30
2023-01-07T07:02:51.507Z,2.38
2023-01-07T07:05:18.849Z,5.57
2023-01-07T07:07:45.590Z,4.57
2023-01-07T07:10:13.508Z,3.17
2023-01-07T07:12:41.139Z,2.83
2023-01-07T07:15:09.498Z,2.45
2023-01-07T07:17:36.318Z,1.77
2023-01-07T07:20:06.026Z,5.28
2023-01-07T07:22:32.775Z,2.25
2023-01-07T07:25:00.106Z,1.92
2023-01-07T07:27:26.972Z,1.97
2023-01-07T07:29:54.202Z,1.52
2023-01-07T07:32:21.070Z,1.67
2023-01-07T07:34:47.898Z,1.23
2023-01-07T07:37:14.667Z,2.60
2023-01-07T07:39:41.427Z,1.90
2023-01-07T07:42:08.301Z,3.38
2023-01-07T07:44:35.067Z,1.00
2023-01-07T07:47:01.843Z,1.23
2023-01-07T07:49:30.936Z,1.73
2023-01-07T07:51:57.814Z,1.38
2023-01-07T07:54:24.663Z,1.73
2023-01-07T07:56:51.451Z,2.10
2023-01-07T07:59:18.231Z,1.25
2023-01-07T08:01:45.704Z,3.63
2023-01-07T08:04:13.491Z,2.00
2023-01-07T08:06:40.279Z,1.35
2023-01-07T08:09:07.100Z,1.92
2023-01-07T08:11:34.549Z,1.98
2023-01-07T08:14:01.866Z,1.67
2023-01-07T08:16:28.820Z,2.50
2023-01-07T08:18:55.587Z,2.75
2023-01-07T08:21:22.370Z,2.58
2023-01-07T08:23:49.172Z,1.80
2023-01-07T08:26:16.429Z,1.58
2023-01-07T08:28:46.420Z,2.53
2023-01-07T08:31:13.734Z,1.80
2023-01-07T08:33:40.599Z,1.05
2023-01-07T08:36:22.067Z,1.38
2023-01-07T08:38:51.841Z,1.95
2023-01-07T08:41:19.364Z,1.83
2023-01-07T08:43:47.835Z,2.47
2023-01-07T08:46:15.375Z,1.27
2023-01-07T08:48:42.484Z,0.98
2023-01-07T08:51:09.346Z,0.82
2023-01-07T08:53:36.616Z,3.85
2023-01-07T08:56:03.983Z,0.80
2023-01-07T08:58:33.200Z,2.60
2023-01-07T09:01:05.806Z,2.10
2023-01-07T09:03:33.988Z,3.03
2023-01-07T09:06:01.257Z,1.52
2023-01-07T09:08:28.034Z,2.25
2023-01-07T09:10:55.304Z,1.90
2023-01-07T09:13:22.287Z,1.83
2023-01-07T09:15:49.185Z,1.65
2023-01-07T09:18:15.962Z,3.25
2023-01-07T09:20:42.704Z,3.55
2023-01-07T09:23:10.143Z,1.42
2023-01-07T09:25:37.198Z,4.22
2023-01-07T09:28:04.736Z,4.47
2023-01-07T09:30:31.550Z,1.80
2023-01-07T09:32:58.788Z,1.95
2023-01-07T09:35:26.408Z,2.97
2023-01-07T09:37:53.701Z,1.42
2023-01-07T09:40:27.935Z,1.48
2023-01-07T09:43:07.905Z,1.55
2023-01-07T09:45:43.075Z,2.30
2023-01-07T09:48:34.756Z,1.95
2023-01-07T09:51:12.232Z,1.48
2023-01-07T09:53:51.832Z,1.08
2023-01-07T09:56:24.647Z,1.55
2023-01-07T09:58:52.100Z,1.70
2023-01-07T10:01:50.087Z,1.67
2023-01-07T10:04:35.452Z,2.72
2023-01-07T10:07:26.555Z,2.17
2023-01-07T10:10:02.643Z,1.35
2023-01-07T10:12:57.157Z,2.38
2023-01-07T10:15:36.142Z,3.28
2023-01-07T10:18:12.404Z,3.13
2023-01-07T10:20:57.792Z,2.90
2023-01-07T10:23:30.128Z,0.95
2023-01-07T10:25:58.659Z,1.95
2023-01-07T10:28:49.314Z,1.73
2023-01-07T10:31:25.640Z,1.58
2023-01-07T10:33:53.607Z,3.58
2023-01-07T10:36:31.443Z,2.38
2023-01-07T10:39:42.798Z,1.45
2023-01-07T10:42:40.782Z,1.63
2023-01-07T10:45:29.136Z,1.58
2023-01-07T10:48:34.355Z,1.52
2023-01-07T10:51:12.718Z,1.80
2023-01-07T10:54:06.521Z,1.88
2023-01-07T10:56:42.984Z,1.63
2023-01-07T10:59:15.703Z,1.05
2023-01-07T11:01:48.559Z,1.55
2023-01-07T11:04:16.649Z,0.70
2023-01-07T11:09:34.469Z,1.13
2023-01-07T11:12:20.597Z,0.93
2023-01-07T11:14:49.278Z,0.85
2023-01-07T11:17:19.428Z,3.00
2023-01-07T11:19:49.787Z,1.40
2023-01-07T11:22:33.523Z,0.90
2023-01-07T11:25:02.076Z,2.13
2023-01-07T11:27:32.189Z,1.00
2023-01-07T11:30:19.276Z,0.60
2023-01-07T11:32:59.893Z,1.20
2023-01-07T11:35:30.707Z,1.08
2023-01-07T11:37:59.284Z,0.68
2023-01-07T11:40:28.965Z,0.80
2023-01-07T11:42:57.034Z,1.00
2023-01-07T11:48:05.120Z,1.80
2023-01-07T11:50:54.685Z,1.25
2023-01-07T11:53:33.194Z,0.65
2023-01-07T11:56:19.806Z,1.17
2023-01-07T11:58:51.034Z,0.75
2023-01-07T12:01:23.154Z,2.20
2023-01-07T12:03:53.078Z,3.30
2023-01-07T12:06:30.959Z,0.65
2023-01-07T12:09:03.504Z,0.75
2023-01-07T12:11:33.838Z,1.73
2023-01-07T12:14:28.550Z,1.70
2023-01-07T12:16:56.645Z,0.70
2023-01-07T12:22:24.671Z,0.60
2023-01-07T12:25:21.021Z,1.77
2023-01-07T12:28:13.886Z,0.82
2023-01-07T12:31:08.589Z,0.98
2023-01-07T12:33:44.452Z,0.77
2023-01-07T12:36:37.141Z,0.70
2023-01-07T12:39:11.651Z,0.60
2023-01-07T12:41:42.289Z,0.73
2023-01-07T12:44:21.098Z,0.90
2023-01-07T12:47:30.743Z,0.68
2023-01-07T12:50:00.787Z,1.40
2023-01-07T12:53:00.412Z,1.08
2023-01-07T12:55:33.746Z,0.60
2023-01-07T12:58:15.501Z,0.77
2023-01-07T13:01:07.688Z,0.70
2023-01-07T13:04:01.121Z,0.70
2023-01-07T13:06:37.421Z,0.90
2023-01-07T13:09:21.171Z,0.60
2023-01-07T13:12:42.204Z,0.60
2023-01-07T13:15:41.918Z,1.08
2023-01-07T13:18:16.249Z,0.98
2023-01-07T13:21:07.995Z,0.75
2023-01-07T13:23:49.741Z,0.60
2023-01-07T13:26:27.528Z,0.50
2023-01-07T13:29:47.722Z,0.85
2023-01-07T13:32:14.462Z,0.55
2023-01-07T13:34:59.094Z,0.75
2023-01-07T13:37:40.835Z,0.50
2023-01-07T13:40:26.824Z,0.52
2023-01-07T13:43:28.537Z,0.98
2023-01-07T13:46:21.842Z,0.60
2023-01-07T13:48:54.506Z,0.68
2023-01-07T13:51:31.132Z,0.50
2023-01-07T13:53:58.580Z,0.70
2023-01-07T13:56:25.918Z,0.57
2023-01-07T13:58:55.506Z,0.93
2023-01-07T14:01:24.005Z,0.50
2023-01-07T14:03:58.826Z,0.85
2023-01-07T14:06:44.542Z,0.75
2023-01-07T14:09:17.608Z,0.63
2023-01-07T14:12:05.975Z,0.55
2023-01-07T14:15:10.135Z,0.50
2023-01-07T14:17:52.845Z,1.40
2023-01-07T14:20:45.514Z,0.55
2023-01-07T14:23:15.337Z,0.50
2023-01-07T14:25:42.543Z,0.50
2023-01-07T14:28:44.102Z,0.90
2023-01-07T14:31:30.649Z,0.55
2023-01-07T14:34:17.335Z,0.70
2023-01-07T14:37:02.367Z,0.50
2023-01-07T14:39:37.846Z,0.50
2023-01-07T14:42:19.859Z,0.45
2023-01-07T14:44:51.027Z,0.50
2023-01-07T14:47:45.882Z,0.50
2023-01-07T14:50:43.856Z,0.60
2023-01-07T14:53:13.714Z,0.60
2023-01-07T14:56:08.031Z,0.50
2023-01-07T14:58:59.696Z,0.50
2023-01-07T15:01:51.657Z,0.63
2023-01-07T15:04:50.454Z,0.70
2023-01-07T15:07:21.702Z,0.70
2023-01-07T15:10:15.137Z,0.57
2023-01-07T15:13:01.957Z,0.63
2023-01-07T15:15:54.010Z,0.60
2023-01-07T15:18:21.848Z,0.47
2023-01-07T15:21:11.505Z,0.60
2023-01-07T15:24:03.005Z,0.60
2023-01-07T15:26:46.405Z,0.50
2023-01-07T15:29:19.826Z,0.57
2023-01-07T15:32:08.845Z,0.52
2023-01-07T15:34:39.310Z,0.60
2023-01-07T15:37:07.432Z,0.60
2023-01-07T15:42:22.108Z,0.65
2023-01-07T15:44:53.264Z,0.60
2023-01-07T15:47:39.194Z,0.60
2023-01-07T15:50:24.999Z,0.70
2023-01-07T15:52:55.013Z,0.50
2023-01-07T15:55:28.172Z,0.70
2023-01-07T15:58:06.956Z,0.60
2023-01-07T16:00:36.240Z,0.60
2023-01-07T16:03:04.401Z,0.90
2023-01-07T16:08:01.680Z,0.60
2023-01-07T16:10:34.082Z,0.60
2023-01-07T16:13:03.709Z,0.60
2023-01-07T16:15:38.031Z,0.60
2023-01-07T16:18:19.101Z,0.60
2023-01-07T16:21:07.750Z,0.75
2023-01-07T16:23:36.806Z,0.60
2023-01-07T16:26:16.470Z,0.60
2023-01-07T16:28:48.950Z,0.60
2023-01-07T16:31:18.876Z,0.70
2023-01-07T16:33:47.389Z,0.63
2023-01-07T16:36:25.291Z,1.38
2023-01-07T16:38:57.463Z,0.60
2023-01-07T16:41:30.623Z,1.23
2023-01-07T16:44:01.262Z,0.70
2023-01-07T16:46:29.058Z,0.70
2023-01-07T16:49:18.795Z,0.50
2023-01-07T16:52:02.615Z,0.88
2023-01-07T16:54:32.261Z,0.65
2023-01-07T16:57:18.757Z,0.73
2023-01-07T16:59:49.524Z,0.60
2023-01-07T17:02:19.541Z,0.57
2023-01-07T17:04:46.997Z,0.70
2023-01-07T17:07:23.969Z,1.00
2023-01-07T17:09:56.815Z,0.70
2023-01-07T17:12:38.291Z,0.93
2023-01-07T17:15:32.893Z,0.98
2023-01-07T17:18:11.590Z,0.88
2023-01-07T17:20:56.647Z,1.00
2023-01-07T17:23:26.361Z,0.80
2023-01-07T17:25:57.052Z,0.88
2023-01-07T17:28:25.793Z,0.70
2023-01-07T17:30:53.410Z,0.73
2023-01-07T17:33:23.364Z,0.77
2023-01-07T17:35:54.183Z,0.73
2023-01-07T17:38:21.229Z,0.70
2023-01-07T17:40:49.489Z,0.77
2023-01-07T17:43:33.950Z,0.60
2023-01-07T17:46:10.100Z,2.10
2023-01-07T17:48:37.288Z,1.23
2023-01-07T17:51:05.892Z,4.07
2023-01-07T17:53:35.995Z,2.70
2023-01-07T17:56:04.050Z,2.35
2023-01-07T17:58:36.119Z,2.90
2023-01-07T18:01:07.049Z,3.30
2023-01-07T18:03:34.130Z,1.80
2023-01-07T18:06:01.812Z,1.40
2023-01-07T18:08:28.708Z,2.60
2023-01-07T18:11:14.924Z,2.72
2023-01-07T18:13:42.184Z,2.25
2023-01-07T18:16:16.665Z,2.80
2023-01-07T18:18:43.448Z,0.90
2023-01-07T18:21:12.153Z,2.10
2023-01-07T18:23:39.055Z,1.67
2023-01-07T18:26:08.380Z,3.28
2023-01-07T18:28:35.140Z,1.70
2023-01-07T18:31:01.965Z,1.58
2023-01-07T18:33:28.774Z,2.20
2023-01-07T18:35:55.706Z,1.13
2023-01-07T18:38:22.489Z,0.80
2023-01-07T18:40:49.658Z,2.20
2023-01-07T18:43:17.858Z,1.33
2023-01-07T18:45:45.894Z,4.22
2023-01-07T18:48:14.364Z,2.78
2023-01-07T18:50:42.632Z,3.97
2023-01-07T18:53:09.740Z,8.32
2023-01-07T18:55:37.861Z,7.85
2023-01-07T19:00:32.516Z,8.40
2023-01-07T19:02:59.756Z,3.60
2023-01-07T19:05:28.386Z,5.50
2023-01-07T19:07:55.495Z,4.35
2023-01-07T19:10:23.431Z,2.67
2023-01-07T19:12:50.544Z,2.90
2023-01-07T19:15:17.699Z,3.60
2023-01-07T19:17:44.832Z,2.30
2023-01-07T19:20:12.711Z,2.78
2023-01-07T19:22:39.497Z,3.85
2023-01-07T19:25:07.253Z,3.70
2023-01-07T19:27:36.506Z,1.88
2023-01-07T19:30:06.307Z,2.58
2023-01-07T19:32:33.118Z,2.92
2023-01-07T19:34:59.893Z,4.18
2023-01-07T19:37:26.781Z,3.13
2023-01-07T19:39:53.625Z,3.72
2023-01-07T19:42:20.880Z,3.97
2023-01-07T19:44:48.200Z,5.80
2023-01-07T19:47:18.503Z,1.63
2023-01-07T19:49:45.421Z,7.30
2023-01-07T19:52:13.578Z,2.38
2023-01-07T19:57:08.067Z,4.30
2023-01-07T19:59:35.571Z,5.03
2023-01-07T20:02:03.425Z,7.22
2023-01-07T20:04:30.490Z,9.00
2023-01-07T20:06:57.818Z,9.27
2023-01-07T20:09:25.102Z,9.20
2023-01-07T20:11:52.392Z,3.28
2023-01-07T20:14:19.167Z,4.03
2023-01-07T20:16:46.010Z,6.95
2023-01-07T20:19:14.225Z,5.32
2023-01-07T20:24:08.634Z,5.95
2023-01-07T20:26:37.866Z,7.35
2023-01-07T20:29:04.704Z,4.60
2023-01-07T20:31:31.758Z,6.32
2023-01-07T20:33:59.906Z,3.95
2023-01-07T20:38:55.611Z,2.60
2023-01-07T20:41:25.377Z,3.95
2023-01-07T20:43:54.421Z,4.22
2023-01-07T20:46:21.913Z,7.38
2023-01-07T20:48:49.247Z,3.05
2023-01-07T20:51:16.483Z,6.73
2023-01-07T20:53:44.025Z,5.37
2023-01-07T20:56:12.410Z,3.25
2023-01-07T20:58:40.047Z,3.25
2023-01-07T21:01:12.775Z,1.85
2023-01-07T21:03:41.116Z,9.75
2023-01-07T21:06:10.168Z,7.53
2023-01-07T21:08:37.658Z,8.77
2023-01-07T21:11:10.094Z,5.32
2023-01-07T21:13:37.004Z,7.35
2023-01-07T21:16:04.847Z,7.15
2023-01-07T21:18:33.604Z,5.47
2023-01-07T21:21:02.251Z,6.18
2023-01-07T21:23:29.478Z,4.78
2023-01-07T21:25:56.789Z,3.93
2023-01-07T21:28:23.552Z,7.43
2023-01-07T21:30:50.481Z,4.25
2023-01-07T21:33:17.826Z,2.95
2023-01-07T21:35:44.623Z,3.30
2023-01-07T21:38:11.389Z,3.00
2023-01-07T21:40:39.439Z,2.50
2023-01-07T21:43:09.026Z,3.08
2023-01-07T21:45:36.752Z,2.72
2023-01-07T21:48:03.787Z,5.25
2023-01-07T21:50:31.152Z,3.22
2023-01-07T21:52:57.948Z,2.30
2023-01-07T21:55:25.223Z,1.63
2023-01-07T21:57:52.017Z,1.47
2023-01-07T22:00:19.391Z,2.28
2023-01-07T22:02:46.195Z,1.65
2023-01-07T22:05:13.545Z,1.88
2023-01-07T22:07:40.285Z,2.67
2023-01-07T22:10:07.961Z,2.78
2023-01-07T22:12:35.212Z,2.38
2023-01-07T22:15:02.510Z,1.93
2023-01-07T22:17:29.826Z,2.53
2023-01-07T22:19:56.716Z,1.10
2023-01-07T22:22:23.975Z,1.85
2023-01-07T22:24:51.187Z,2.00
2023-01-07T22:27:17.942Z,1.17
2023-01-07T22:29:45.261Z,1.50
2023-01-07T22:32:12.565Z,1.50
2023-01-07T22:34:39.949Z,1.17
2023-01-07T22:37:12.267Z,2.00
2023-01-07T22:39:45.766Z,0.80
2023-01-07T22:42:17.222Z,1.27
2023-01-07T22:44:50.760Z,1.60
2023-01-07T22:47:22.284Z,0.82
2023-01-07T22:49:51.103Z,1.65
2023-01-07T22:52:18.210Z,1.70
2023-01-07T22:54:45.147Z,0.82
2023-01-07T22:57:12.921Z,1.67
2023-01-07T22:59:39.770Z,0.80
2023-01-07T23:02:06.658Z,0.80
2023-01-07T23:04:33.519Z,3.88
2023-01-07T23:07:00.355Z,1.17
2023-01-07T23:09:27.221Z,1.35
2023-01-07T23:11:59.274Z,1.48
2023-01-07T23:14:27.860Z,1.60
2023-01-07T23:16:55.093Z,0.70
2023-01-07T23:19:22.275Z,1.60
2023-01-07T23:21:51.814Z,0.83
2023-01-07T23:24:19.373Z,1.13
2023-01-07T23:26:48.000Z,1.23
2023-01-07T23:29:14.842Z,1.33
2023-01-07T23:31:41.859Z,1.33
2023-01-07T23:34:09.060Z,1.15
2023-01-07T23:36:37.401Z,1.08
2023-01-07T23:39:05.049Z,1.33
2023-01-07T23:41:32.550Z,0.70
2023-01-07T23:43:59.327Z,1.25
2023-01-07T23:46:26.214Z,0.80
2023-01-07T23:48:53.521Z,1.08
2023-01-07T23:51:21.602Z,1.23
2023-01-07T23:56:18.608Z,0.65
2023-01-07T23:58:45.452Z,1.02
